createdAt,value
2023-02-09T00:01:08.030Z,43.59
2023-02-09T00:03:36.885Z,43.76
2023-02-09T00:06:06.561Z,43.47
2023-02-09T00:08:37.648Z,43.59
2023-02-09T00:11:09.516Z,43.51
2023-02-09T00:13:38.347Z,43.80
2023-02-09T00:16:06.904Z,44.26
2023-02-09T00:18:35.200Z,44.21
2023-02-09T00:21:06.419Z,44.00
2023-02-09T00:23:36.821Z,44.21
2023-02-09T00:26:06.989Z,43.91
2023-02-09T00:28:35.584Z,43.87
2023-02-09T00:31:08.950Z,43.93
2023-02-09T00:33:37.830Z,43.93
2023-02-09T00:36:07.244Z,43.83
2023-02-09T00:38:35.450Z,43.71
2023-02-09T00:41:04.090Z,44.48
2023-02-09T00:43:32.742Z,45.04
2023-02-09T00:46:01.019Z,44.93
2023-02-09T00:48:30.739Z,45.02
2023-02-09T00:50:59.096Z,44.84
2023-02-09T00:53:27.285Z,44.62
2023-02-09T00:55:55.306Z,44.54
2023-02-09T00:58:24.339Z,44.68
2023-02-09T01:00:52.507Z,44.44
2023-02-09T01:03:20.548Z,44.32
2023-02-09T01:05:50.015Z,44.28
2023-02-09T01:08:18.032Z,44.31
2023-02-09T01:10:47.813Z,44.05
2023-02-09T01:13:15.983Z,43.87
2023-02-09T01:15:44.144Z,43.63
2023-02-09T01:18:12.499Z,43.71
2023-02-09T01:20:42.170Z,43.46
2023-02-09T01:23:11.616Z,43.00
2023-02-09T01:25:39.644Z,42.62
2023-02-09T01:28:07.680Z,42.55
2023-02-09T01:30:35.839Z,42.19
2023-02-09T01:33:03.891Z,42.07
2023-02-09T01:35:32.423Z,41.75
2023-02-09T01:38:00.569Z,41.62
2023-02-09T01:40:30.104Z,41.36
2023-02-09T01:42:58.233Z,41.13
2023-02-09T01:45:35.025Z,41.00
2023-02-09T01:48:04.824Z,40.71
2023-02-09T01:50:38.574Z,40.46
2023-02-09T01:53:07.973Z,40.19
2023-02-09T01:55:41.812Z,39.87
2023-02-09T01:58:14.712Z,39.92
2023-02-09T02:00:43.426Z,39.99
2023-02-09T02:03:15.907Z,39.62
2023-02-09T02:05:47.381Z,39.55
2023-02-09T02:08:20.699Z,39.40
2023-02-09T02:10:50.411Z,39.33
2023-02-09T02:13:19.105Z,39.40
2023-02-09T02:15:56.147Z,39.27
2023-02-09T02:18:36.457Z,39.14
2023-02-09T02:21:37.431Z,38.89
2023-02-09T02:24:45.968Z,39.23
2023-02-09T02:27:29.465Z,39.09
2023-02-09T02:30:27.994Z,39.14
2023-02-09T02:33:11.848Z,39.01
2023-02-09T02:35:48.022Z,38.97
2023-02-09T02:38:20.724Z,39.24
2023-02-09T02:40:58.108Z,39.42
2023-02-09T02:43:40.868Z,39.37
2023-02-09T02:46:16.759Z,39.57
2023-02-09T02:48:53.837Z,39.39
2023-02-09T02:51:31.069Z,39.22
2023-02-09T02:54:03.175Z,39.42
2023-02-09T02:56:35.677Z,39.20
2023-02-09T02:59:08.162Z,39.10
2023-02-09T03:01:43.151Z,39.07
2023-02-09T03:04:14.420Z,39.07
2023-02-09T03:06:42.477Z,38.72
2023-02-09T03:09:10.876Z,38.97
2023-02-09T03:11:41.479Z,39.21
2023-02-09T03:14:32.725Z,39.38
2023-02-09T03:17:10.792Z,39.32
2023-02-09T03:19:47.352Z,39.18
2023-02-09T03:22:23.872Z,39.27
2023-02-09T03:24:56.499Z,39.33
2023-02-09T03:27:28.503Z,39.43
2023-02-09T03:29:59.156Z,39.42
2023-02-09T03:32:28.135Z,39.49
2023-02-09T03:34:59.109Z,39.58
2023-02-09T03:37:27.434Z,39.78
2023-02-09T03:39:55.447Z,39.81
2023-02-09T03:42:23.472Z,39.84
2023-02-09T03:44:51.524Z,40.10
2023-02-09T03:47:19.533Z,39.96
2023-02-09T03:49:47.683Z,40.10
2023-02-09T03:52:17.457Z,40.11
2023-02-09T03:54:45.695Z,40.10
2023-02-09T03:57:13.745Z,40.10
2023-02-09T03:59:42.097Z,40.13
2023-02-09T04:02:11.445Z,40.16
2023-02-09T04:04:39.510Z,40.28
2023-02-09T04:07:07.976Z,40.18
2023-02-09T04:09:38.376Z,40.39
2023-02-09T04:12:07.181Z,40.97
2023-02-09T04:14:35.301Z,40.84
2023-02-09T04:17:03.439Z,40.71
2023-02-09T04:19:31.476Z,40.80
2023-02-09T04:22:00.124Z,40.68
2023-02-09T04:24:28.567Z,40.85
2023-02-09T04:26:57.964Z,40.75
2023-02-09T04:29:26.120Z,41.03
2023-02-09T04:31:54.369Z,41.33
2023-02-09T04:34:24.183Z,41.06
2023-02-09T04:36:52.410Z,40.99
2023-02-09T04:39:20.552Z,41.11
2023-02-09T04:41:48.589Z,41.57
2023-02-09T04:44:17.971Z,41.33
2023-02-09T04:46:46.028Z,41.21
2023-02-09T04:49:14.058Z,41.49
2023-02-09T04:51:42.125Z,41.65
2023-02-09T04:54:10.164Z,41.87
2023-02-09T04:56:38.889Z,41.85
2023-02-09T04:59:24.815Z,41.49
2023-02-09T05:01:54.345Z,41.90
2023-02-09T05:04:22.373Z,42.48
2023-02-09T05:06:50.410Z,41.90
2023-02-09T05:09:18.489Z,42.09
2023-02-09T05:11:46.497Z,42.22
2023-02-09T05:14:14.590Z,42.13
2023-02-09T05:16:42.634Z,42.13
2023-02-09T05:19:12.076Z,42.08
2023-02-09T05:21:40.118Z,41.98
2023-02-09T05:24:08.429Z,42.07
2023-02-09T05:26:36.678Z,42.10
2023-02-09T05:29:04.748Z,42.00
2023-02-09T05:31:32.822Z,41.83
2023-02-09T05:34:01.760Z,41.94
2023-02-09T05:36:31.210Z,41.81
2023-02-09T05:38:59.209Z,42.36
2023-02-09T05:41:43.969Z,42.52
2023-02-09T05:44:12.049Z,42.35
2023-02-09T05:46:40.048Z,42.23
2023-02-09T05:49:08.041Z,42.66
2023-02-09T05:51:37.457Z,42.73
2023-02-09T05:54:05.534Z,42.97
2023-02-09T05:56:33.628Z,42.59
2023-02-09T05:59:04.104Z,42.83
2023-02-09T06:01:32.389Z,43.03
2023-02-09T06:04:00.376Z,43.13
2023-02-09T06:06:28.486Z,43.06
2023-02-09T06:08:57.829Z,43.46
2023-02-09T06:11:25.839Z,43.13
2023-02-09T06:13:53.910Z,42.83
2023-02-09T06:16:21.981Z,42.75
2023-02-09T06:18:50.047Z,42.74
2023-02-09T06:21:18.485Z,43.10
2023-02-09T06:23:46.575Z,43.03
2023-02-09T06:26:18.048Z,42.97
2023-02-09T06:28:46.936Z,43.13
2023-02-09T06:31:15.458Z,43.19
2023-02-09T06:33:43.605Z,42.79
2023-02-09T06:36:11.931Z,43.01
2023-02-09T06:38:40.346Z,43.16
2023-02-09T06:41:08.415Z,43.19
2023-02-09T06:43:37.872Z,42.93
2023-02-09T06:46:10.169Z,43.43
2023-02-09T06:48:38.317Z,43.49
2023-02-09T06:51:09.734Z,43.71
2023-02-09T06:53:38.637Z,43.62
2023-02-09T06:56:07.268Z,43.61
2023-02-09T06:58:35.605Z,43.62
2023-02-09T07:01:05.477Z,43.81
2023-02-09T07:03:33.589Z,43.94
2023-02-09T07:06:05.297Z,44.09
2023-02-09T07:08:33.355Z,44.55
2023-02-09T07:11:03.552Z,44.57
2023-02-09T07:13:31.969Z,44.09
2023-02-09T07:16:02.111Z,44.45
2023-02-09T07:18:32.264Z,44.07
2023-02-09T07:21:01.993Z,43.96
2023-02-09T07:23:30.872Z,43.89
2023-02-09T07:26:03.176Z,43.71
2023-02-09T07:28:31.841Z,43.90
2023-02-09T07:31:04.917Z,43.89
2023-02-09T07:33:35.242Z,43.96
2023-02-09T07:36:05.245Z,43.69
2023-02-09T07:38:33.739Z,43.81
2023-02-09T07:41:02.819Z,44.13
2023-02-09T07:43:31.098Z,44.13
2023-02-09T07:46:02.619Z,43.75
2023-02-09T07:48:31.485Z,43.55
2023-02-09T07:51:01.052Z,43.28
2023-02-09T07:53:29.960Z,43.82
2023-02-09T07:55:58.311Z,43.81
2023-02-09T07:58:26.418Z,43.41
2023-02-09T08:00:54.420Z,43.43
2023-02-09T08:03:24.259Z,43.20
2023-02-09T08:05:59.494Z,43.00
2023-02-09T08:08:28.995Z,43.08
2023-02-09T08:10:59.315Z,42.67
2023-02-09T08:13:30.039Z,42.90
2023-02-09T08:16:02.930Z,42.79
2023-02-09T08:18:35.482Z,42.84
2023-02-09T08:21:06.161Z,42.73
2023-02-09T08:23:38.423Z,42.48
2023-02-09T08:26:10.378Z,42.36
2023-02-09T08:28:44.904Z,42.13
2023-02-09T08:31:13.665Z,41.86
2023-02-09T08:33:41.995Z,41.98
2023-02-09T08:36:15.069Z,41.94
2023-02-09T08:38:45.209Z,41.65
2023-02-09T08:41:15.770Z,41.58
2023-02-09T08:43:43.838Z,41.06
2023-02-09T08:46:13.948Z,41.06
2023-02-09T08:48:45.280Z,40.68
2023-02-09T08:51:15.320Z,40.33
2023-02-09T08:53:47.668Z,40.12
2023-02-09T08:56:15.793Z,39.84
2023-02-09T08:58:43.832Z,39.69
2023-02-09T09:01:13.461Z,39.21
2023-02-09T09:03:42.233Z,39.31
2023-02-09T09:06:12.171Z,39.22
2023-02-09T09:08:40.967Z,39.38
2023-02-09T09:11:13.189Z,39.87
2023-02-09T09:13:41.765Z,40.02
2023-02-09T09:16:15.582Z,39.68
2023-02-09T09:18:44.593Z,39.62
2023-02-09T09:21:12.921Z,39.87
2023-02-09T09:23:41.267Z,39.68
2023-02-09T09:26:10.857Z,39.73
2023-02-09T09:28:39.942Z,39.43
2023-02-09T09:31:12.484Z,39.22
2023-02-09T09:33:41.740Z,39.32
2023-02-09T09:36:10.829Z,39.27
2023-02-09T09:38:40.646Z,38.75
2023-02-09T09:41:20.956Z,38.70
2023-02-09T09:43:49.584Z,38.65
2023-02-09T09:46:20.334Z,38.30
2023-02-09T09:48:51.731Z,39.02
2023-02-09T09:51:23.766Z,38.94
2023-02-09T09:53:54.563Z,38.73
2023-02-09T09:56:26.852Z,38.35
2023-02-09T09:58:55.260Z,39.06
2023-02-09T10:01:23.453Z,38.98
2023-02-09T10:03:51.610Z,39.13
2023-02-09T10:06:22.174Z,39.20
2023-02-09T10:08:54.116Z,38.44
2023-02-09T10:11:28.888Z,37.95
2023-02-09T10:13:58.343Z,37.91
2023-02-09T10:16:29.169Z,37.56
2023-02-09T10:18:58.905Z,37.79
2023-02-09T10:21:30.134Z,37.57
2023-02-09T10:24:12.893Z,37.75
2023-02-09T10:26:43.135Z,37.40
2023-02-09T10:29:25.153Z,37.84
2023-02-09T10:31:58.310Z,37.68
2023-02-09T10:34:32.747Z,37.37
2023-02-09T10:37:18.791Z,37.58
2023-02-09T10:39:48.769Z,37.14
2023-02-09T10:42:24.312Z,36.97
2023-02-09T10:44:54.728Z,36.77
2023-02-09T10:47:30.053Z,36.27
2023-02-09T10:50:03.279Z,36.79
2023-02-09T10:52:35.392Z,37.37
2023-02-09T10:55:23.274Z,37.78
2023-02-09T10:57:52.918Z,37.74
2023-02-09T11:00:31.126Z,37.67
2023-02-09T11:03:02.747Z,37.94
2023-02-09T11:05:34.050Z,37.95
2023-02-09T11:08:10.094Z,38.09
2023-02-09T11:10:43.695Z,38.65
2023-02-09T11:13:19.968Z,38.75
2023-02-09T11:16:20.665Z,38.78
2023-02-09T11:18:58.182Z,38.46
2023-02-09T11:21:45.353Z,39.20
2023-02-09T11:24:19.858Z,39.40
2023-02-09T11:26:54.315Z,39.46
2023-02-09T11:29:30.497Z,40.36
2023-02-09T11:32:12.085Z,40.09
2023-02-09T11:35:10.642Z,40.80
2023-02-09T11:37:48.588Z,40.49
2023-02-09T11:40:37.358Z,40.37
2023-02-09T11:43:16.805Z,40.42
2023-02-09T11:45:48.599Z,40.54
2023-02-09T11:48:24.124Z,40.19
2023-02-09T11:51:04.305Z,40.58
2023-02-09T11:53:41.886Z,40.95
2023-02-09T11:56:12.787Z,40.95
2023-02-09T11:58:46.791Z,40.91
2023-02-09T12:01:27.312Z,40.83
2023-02-09T12:04:03.672Z,41.06
2023-02-09T12:06:38.155Z,41.17
2023-02-09T12:09:16.447Z,40.90
2023-02-09T12:11:54.006Z,41.16
2023-02-09T12:14:33.056Z,41.27
2023-02-09T12:17:16.082Z,41.45
2023-02-09T12:19:47.221Z,40.97
2023-02-09T12:22:51.653Z,40.85
2023-02-09T12:25:23.894Z,41.37
2023-02-09T12:28:16.842Z,41.55
2023-02-09T12:31:19.571Z,41.90
2023-02-09T12:34:28.921Z,42.38
2023-02-09T12:37:30.109Z,42.10
2023-02-09T12:40:22.670Z,41.26
2023-02-09T12:43:25.500Z,41.01
2023-02-09T12:46:23.318Z,40.71
2023-02-09T12:49:10.798Z,40.74
2023-02-09T12:51:43.749Z,40.71
2023-02-09T12:54:30.845Z,40.66
2023-02-09T12:57:53.275Z,40.70
2023-02-09T13:00:57.121Z,40.90
2023-02-09T13:03:27.031Z,41.16
2023-02-09T13:05:59.796Z,41.10
2023-02-09T13:08:49.842Z,41.37
2023-02-09T13:11:31.531Z,41.49
2023-02-09T13:14:03.980Z,41.75
2023-02-09T13:16:48.968Z,42.19
2023-02-09T13:19:48.089Z,42.32
2023-02-09T13:22:36.731Z,42.94
2023-02-09T13:25:16.634Z,43.10
2023-02-09T13:27:46.725Z,43.28
2023-02-09T13:30:25.226Z,43.27
2023-02-09T13:33:04.097Z,43.39
2023-02-09T13:35:35.954Z,44.22
2023-02-09T13:38:16.875Z,44.00
2023-02-09T13:40:50.564Z,43.88
2023-02-09T13:43:22.144Z,43.81
2023-02-09T13:45:52.384Z,43.77
2023-02-09T13:48:27.218Z,44.22
2023-02-09T13:50:57.418Z,44.32
2023-02-09T13:53:26.934Z,44.43
2023-02-09T13:55:57.486Z,44.35
2023-02-09T13:58:28.809Z,44.38
2023-02-09T14:01:00.255Z,44.42
2023-02-09T14:03:32.652Z,44.26
2023-02-09T14:06:04.201Z,44.11
2023-02-09T14:08:33.548Z,44.13
2023-02-09T14:11:07.383Z,44.05
2023-02-09T14:13:40.768Z,44.04
2023-02-09T14:16:08.783Z,44.15
2023-02-09T14:18:50.959Z,44.09
2023-02-09T14:21:23.458Z,44.11
2023-02-09T14:24:16.398Z,44.06
2023-02-09T14:26:48.042Z,43.93
2023-02-09T14:29:19.651Z,43.97
2023-02-09T14:31:50.403Z,44.19
2023-02-09T14:34:37.742Z,44.31
2023-02-09T14:37:29.363Z,44.69
2023-02-09T14:40:01.776Z,44.45
2023-02-09T14:42:30.939Z,44.70
2023-02-09T14:45:00.655Z,45.16
2023-02-09T14:47:32.372Z,44.83
2023-02-09T14:50:02.512Z,45.05
2023-02-09T14:52:33.257Z,45.29
2023-02-09T14:55:05.160Z,45.56
2023-02-09T14:57:36.331Z,45.42
2023-02-09T15:00:16.505Z,45.18
2023-02-09T15:02:45.608Z,45.97
2023-02-09T15:05:16.117Z,46.02
2023-02-09T15:07:48.414Z,45.80
2023-02-09T15:10:23.677Z,45.45
2023-02-09T15:12:52.426Z,45.59
2023-02-09T15:15:22.249Z,46.02
2023-02-09T15:17:51.774Z,46.15
2023-02-09T15:20:24.585Z,45.88
2023-02-09T15:22:53.006Z,46.88
2023-02-09T15:25:21.641Z,46.79
2023-02-09T15:27:52.554Z,47.02
2023-02-09T15:30:23.257Z,46.37
2023-02-09T15:32:51.703Z,46.24
2023-02-09T15:35:23.685Z,46.37
2023-02-09T15:37:55.409Z,46.67
2023-02-09T15:40:45.763Z,46.89
2023-02-09T15:43:33.939Z,46.73
2023-02-09T15:46:19.724Z,46.79
2023-02-09T15:48:48.039Z,47.09
2023-02-09T15:51:18.866Z,47.59
2023-02-09T15:53:47.973Z,47.31
2023-02-09T15:56:16.773Z,47.28
2023-02-09T15:58:48.293Z,47.65
2023-02-09T16:01:18.025Z,48.00
2023-02-09T16:03:46.799Z,48.05
2023-02-09T16:06:19.550Z,48.10
2023-02-09T16:08:49.859Z,48.15
2023-02-09T16:11:21.751Z,48.53
2023-02-09T16:13:50.888Z,48.37
2023-02-09T16:16:19.222Z,48.40
2023-02-09T16:18:48.298Z,48.53
2023-02-09T16:21:24.752Z,48.61
2023-02-09T16:23:55.660Z,49.01
2023-02-09T16:26:24.789Z,48.84
2023-02-09T16:28:54.101Z,49.22
2023-02-09T16:31:23.381Z,48.89
2023-02-09T16:33:51.766Z,48.71
2023-02-09T16:36:25.645Z,48.67
2023-02-09T16:38:53.894Z,48.41
2023-02-09T16:41:39.474Z,48.80
2023-02-09T16:44:17.733Z,48.41
2023-02-09T16:46:47.308Z,48.67
2023-02-09T16:49:35.825Z,48.39
2023-02-09T16:52:13.237Z,48.55
2023-02-09T16:54:44.864Z,48.82
2023-02-09T16:57:15.072Z,49.21
2023-02-09T16:59:43.482Z,49.11
2023-02-09T17:02:36.598Z,49.56
2023-02-09T17:05:16.243Z,49.69
2023-02-09T17:07:54.468Z,49.89
2023-02-09T17:10:26.273Z,50.47
2023-02-09T17:12:54.576Z,50.30
2023-02-09T17:15:30.697Z,50.11
2023-02-09T17:18:02.883Z,49.98
2023-02-09T17:20:37.452Z,49.82
2023-02-09T17:23:07.330Z,50.02
2023-02-09T17:25:36.417Z,50.34
2023-02-09T17:28:05.730Z,50.70
2023-02-09T17:30:35.139Z,50.78
2023-02-09T17:33:05.737Z,50.92
2023-02-09T17:36:03.501Z,50.92
2023-02-09T17:38:26.549Z,50.91
2023-02-09T17:40:56.695Z,50.85
2023-02-09T17:43:25.729Z,50.76
2023-02-09T17:45:54.320Z,51.02
2023-02-09T17:48:23.640Z,51.06
2023-02-09T17:50:57.944Z,51.17
2023-02-09T17:53:29.688Z,51.08
2023-02-09T17:55:57.980Z,51.13
2023-02-09T17:58:26.516Z,51.18
2023-02-09T18:00:56.110Z,51.34
2023-02-09T18:03:26.129Z,51.37
2023-02-09T18:05:58.527Z,51.35
2023-02-09T18:08:28.599Z,51.50
2023-02-09T18:10:58.800Z,51.97
2023-02-09T18:13:27.788Z,52.17
2023-02-09T18:15:56.583Z,52.30
2023-02-09T18:18:24.961Z,52.30
2023-02-09T18:20:53.198Z,52.32
2023-02-09T18:23:23.048Z,52.69
2023-02-09T18:25:56.092Z,52.72
2023-02-09T18:28:24.523Z,52.95
2023-02-09T18:30:52.821Z,52.91
2023-02-09T18:33:21.168Z,53.33
2023-02-09T18:35:49.757Z,53.40
2023-02-09T18:38:18.438Z,54.09
2023-02-09T18:40:46.833Z,54.24
2023-02-09T18:43:16.652Z,54.78
2023-02-09T18:45:45.485Z,54.69
2023-02-09T18:48:14.421Z,54.58
2023-02-09T18:50:42.823Z,54.73
2023-02-09T18:53:12.897Z,54.91
2023-02-09T18:55:41.224Z,55.06
2023-02-09T18:58:10.409Z,55.34
2023-02-09T19:00:40.112Z,55.66
2023-02-09T19:03:08.402Z,55.94
2023-02-09T19:05:36.727Z,56.14
2023-02-09T19:08:07.390Z,56.07
2023-02-09T19:10:36.130Z,55.90
2023-02-09T19:13:05.232Z,56.19
2023-02-09T19:15:34.712Z,56.26
2023-02-09T19:18:04.498Z,56.85
2023-02-09T19:20:34.679Z,57.30
2023-02-09T19:23:03.928Z,57.56
2023-02-09T19:25:33.210Z,57.58
2023-02-09T19:28:01.629Z,57.84
2023-02-09T19:30:36.623Z,57.77
2023-02-09T19:33:09.370Z,57.95
2023-02-09T19:35:37.704Z,57.95
2023-02-09T19:38:05.896Z,58.15
2023-02-09T19:40:40.760Z,58.42
2023-02-09T19:43:09.242Z,58.71
2023-02-09T19:45:37.786Z,58.61
2023-02-09T19:48:07.457Z,58.83
2023-02-09T19:50:38.071Z,58.34
2023-02-09T19:53:07.385Z,58.50
2023-02-09T19:55:36.260Z,58.41
2023-02-09T19:58:04.600Z,58.64
2023-02-09T20:00:33.111Z,58.93
2023-02-09T20:03:01.474Z,59.02
2023-02-09T20:05:29.794Z,58.83
2023-02-09T20:07:59.834Z,59.67
2023-02-09T20:10:28.168Z,59.56
2023-02-09T20:12:56.512Z,59.51
2023-02-09T20:15:24.912Z,60.01
2023-02-09T20:17:53.267Z,59.72
2023-02-09T20:20:21.567Z,59.80
2023-02-09T20:22:50.990Z,59.46
2023-02-09T20:25:20.719Z,59.64
2023-02-09T20:27:50.222Z,59.48
2023-02-09T20:30:19.019Z,59.46
2023-02-09T20:32:47.298Z,59.78
2023-02-09T20:35:15.739Z,59.69
2023-02-09T20:37:44.088Z,59.67
2023-02-09T20:40:13.038Z,59.67
2023-02-09T20:43:00.053Z,59.73
2023-02-09T20:45:45.867Z,59.72
2023-02-09T20:48:14.863Z,60.10
2023-02-09T20:50:45.242Z,60.65
2023-02-09T20:53:14.054Z,60.46
2023-02-09T20:55:42.932Z,60.10
2023-02-09T20:58:13.792Z,59.96
2023-02-09T21:00:42.390Z,59.96
2023-02-09T21:03:10.746Z,59.80
2023-02-09T21:05:39.158Z,59.61
2023-02-09T21:08:09.235Z,59.43
2023-02-09T21:10:38.600Z,59.54
2023-02-09T21:13:07.982Z,59.56
2023-02-09T21:15:40.752Z,59.10
2023-02-09T21:18:09.347Z,59.24
2023-02-09T21:20:37.903Z,59.42
2023-02-09T21:23:06.225Z,59.30
2023-02-09T21:25:34.665Z,59.19
2023-02-09T21:28:03.052Z,59.28
2023-02-09T21:30:31.451Z,59.25
2023-02-09T21:33:01.173Z,59.12
2023-02-09T21:35:29.674Z,59.04
2023-02-09T21:37:57.977Z,59.14
2023-02-09T21:40:26.271Z,59.12
2023-02-09T21:42:54.649Z,59.19
2023-02-09T21:45:22.925Z,59.41
2023-02-09T21:47:51.773Z,59.62
2023-02-09T21:50:22.258Z,59.93
2023-02-09T21:52:50.949Z,59.90
2023-02-09T21:55:19.361Z,59.86
2023-02-09T21:57:47.752Z,59.88
2023-02-09T22:00:16.898Z,59.82
2023-02-09T22:02:45.619Z,59.71
2023-02-09T22:05:13.926Z,59.70
2023-02-09T22:07:45.650Z,59.56
2023-02-09T22:10:13.995Z,59.45
2023-02-09T22:12:42.411Z,59.64
2023-02-09T22:15:11.522Z,59.48
2023-02-09T22:17:40.581Z,59.46
2023-02-09T22:20:11.111Z,59.50
2023-02-09T22:22:39.905Z,59.49
2023-02-09T22:25:10.181Z,59.45
2023-02-09T22:27:38.447Z,59.64
2023-02-09T22:30:07.265Z,59.67
2023-02-09T22:32:35.678Z,59.54
2023-02-09T22:35:03.989Z,59.70
2023-02-09T22:37:32.283Z,59.94
2023-02-09T22:40:00.548Z,59.83
2023-02-09T22:42:30.220Z,59.93
2023-02-09T22:44:58.475Z,60.15
2023-02-09T22:47:26.806Z,60.21
2023-02-09T22:49:55.065Z,60.15
2023-02-09T22:52:23.452Z,60.19
2023-02-09T22:54:51.969Z,60.25
2023-02-09T22:57:20.522Z,60.32
2023-02-09T22:59:50.289Z,60.37
2023-02-09T23:02:18.633Z,60.38
2023-02-09T23:04:46.941Z,60.34
2023-02-09T23:07:15.291Z,60.67
2023-02-09T23:09:43.658Z,60.57
2023-02-09T23:12:12.012Z,61.18
2023-02-09T23:14:40.269Z,60.86
2023-02-09T23:17:09.941Z,60.77
2023-02-09T23:19:40.292Z,61.09
2023-02-09T23:22:08.572Z,61.16
2023-02-09T23:24:36.859Z,60.94
2023-02-09T23:27:05.276Z,60.94
2023-02-09T23:29:33.541Z,60.85
2023-02-09T23:32:01.808Z,60.98
2023-02-09T23:34:32.981Z,60.79
2023-02-09T23:37:13.114Z,60.82
2023-02-09T23:39:47.263Z,60.80
2023-02-09T23:42:15.588Z,60.67
2023-02-09T23:44:43.845Z,60.66
2023-02-09T23:47:12.137Z,60.82
2023-02-09T23:49:41.808Z,60.74
2023-02-09T23:52:10.129Z,60.76
2023-02-09T23:54:38.382Z,60.77
2023-02-09T23:57:06.664Z,60.76
2023-02-09T23:59:34.996Z,60.75
